sensor_id;sensor_type;location;lat;lon;timestamp;P1;durP1;ratioP1;P2;durP2;ratioP2
20140;SDS011;10231;47.702;9.826;2022-12-18T00:01:50;38.57;;;19.97;;
20140;SDS011;10231;47.702;9.826;2022-12-18T00:04:20;37.87;;;20.23;;
20140;SDS011;10231;47.702;9.826;2022-12-18T00:06:48;44.20;;;19.97;;
20140;SDS011;10231;47.702;9.826;2022-12-18T00:09:13;37.50;;;19.03;;
20140;SDS011;10231;47.702;9.826;2022-12-18T00:11:39;36.70;;;19.97;;
20140;SDS011;10231;47.702;9.826;2022-12-18T00:14:04;36.20;;;18.83;;
20140;SDS011;10231;47.702;9.826;2022-12-18T00:16:30;35.57;;;17.97;;
20140;SDS011;10231;47.702;9.826;2022-12-18T00:18:57;35.80;;;19.20;;
20140;SDS011;10231;47.702;9.826;2022-12-18T00:21:24;35.60;;;18.27;;
20140;SDS011;10231;47.702;9.826;2022-12-18T00:23:50;35.50;;;18.93;;
20140;SDS011;10231;47.702;9.826;2022-12-18T00:26:20;33.50;;;17.33;;
20140;SDS011;10231;47.702;9.826;2022-12-18T00:28:48;34.00;;;19.80;;
20140;SDS011;10231;47.702;9.826;2022-12-18T00:31:15;39.83;;;19.55;;
20140;SDS011;10231;47.702;9.826;2022-12-18T00:33:43;37.13;;;19.08;;
20140;SDS011;10231;47.702;9.826;2022-12-18T00:36:10;34.53;;;19.10;;
20140;SDS011;10231;47.702;9.826;2022-12-18T00:38:44;35.83;;;19.17;;
20140;SDS011;10231;47.702;9.826;2022-12-18T00:41:11;36.07;;;20.17;;
20140;SDS011;10231;47.702;9.826;2022-12-18T00:43:38;36.60;;;19.93;;
20140;SDS011;10231;47.702;9.826;2022-12-18T00:46:04;37.87;;;19.77;;
20140;SDS011;10231;47.702;9.826;2022-12-18T00:48:30;41.17;;;21.27;;
20140;SDS011;10231;47.702;9.826;2022-12-18T00:50:56;37.97;;;20.20;;
20140;SDS011;10231;47.702;9.826;2022-12-18T00:53:22;37.27;;;20.23;;
20140;SDS011;10231;47.702;9.826;2022-12-18T00:55:48;39.67;;;19.63;;
20140;SDS011;10231;47.702;9.826;2022-12-18T00:58:14;38.97;;;20.20;;
20140;SDS011;10231;47.702;9.826;2022-12-18T01:00:41;36.73;;;19.83;;
20140;SDS011;10231;47.702;9.826;2022-12-18T01:03:07;37.83;;;19.07;;
20140;SDS011;10231;47.702;9.826;2022-12-18T01:05:38;34.47;;;18.00;;
20140;SDS011;10231;47.702;9.826;2022-12-18T01:08:05;38.10;;;20.07;;
20140;SDS011;10231;47.702;9.826;2022-12-18T01:10:30;39.07;;;20.97;;
20140;SDS011;10231;47.702;9.826;2022-12-18T01:12:56;38.97;;;20.63;;
20140;SDS011;10231;47.702;9.826;2022-12-18T01:15:21;33.97;;;19.03;;
20140;SDS011;10231;47.702;9.826;2022-12-18T01:17:47;34.47;;;18.27;;
20140;SDS011;10231;47.702;9.826;2022-12-18T01:20:13;37.23;;;18.47;;
20140;SDS011;10231;47.702;9.826;2022-12-18T01:22:38;36.90;;;18.57;;
20140;SDS011;10231;47.702;9.826;2022-12-18T01:25:04;33.30;;;19.33;;
20140;SDS011;10231;47.702;9.826;2022-12-18T01:27:30;36.33;;;18.67;;
20140;SDS011;10231;47.702;9.826;2022-12-18T01:29:57;34.27;;;18.30;;
20140;SDS011;10231;47.702;9.826;2022-12-18T01:32:23;33.17;;;19.27;;
20140;SDS011;10231;47.702;9.826;2022-12-18T01:34:48;37.43;;;20.23;;
20140;SDS011;10231;47.702;9.826;2022-12-18T01:37:14;36.67;;;18.57;;
20140;SDS011;10231;47.702;9.826;2022-12-18T01:39:39;36.57;;;18.03;;
20140;SDS011;10231;47.702;9.826;2022-12-18T01:42:12;35.53;;;19.17;;
20140;SDS011;10231;47.702;9.826;2022-12-18T01:50:23;34.23;;;18.63;;
20140;SDS011;10231;47.702;9.826;2022-12-18T01:52:58;35.40;;;18.60;;
20140;SDS011;10231;47.702;9.826;2022-12-18T01:55:29;35.83;;;19.43;;
20140;SDS011;10231;47.702;9.826;2022-12-18T01:57:59;35.30;;;18.93;;
20140;SDS011;10231;47.702;9.826;2022-12-18T02:00:26;37.43;;;18.80;;
20140;SDS011;10231;47.702;9.826;2022-12-18T02:02:53;35.53;;;19.07;;
20140;SDS011;10231;47.702;9.826;2022-12-18T02:05:21;41.17;;;20.13;;
20140;SDS011;10231;47.702;9.826;2022-12-18T02:08:08;37.00;;;18.57;;
20140;SDS011;10231;47.702;9.826;2022-12-18T02:13:51;34.77;;;18.77;;
20140;SDS011;10231;47.702;9.826;2022-12-18T02:16:50;36.83;;;19.67;;
20140;SDS011;10231;47.702;9.826;2022-12-18T02:19:39;39.20;;;20.67;;
20140;SDS011;10231;47.702;9.826;2022-12-18T02:22:26;39.20;;;20.13;;
20140;SDS011;10231;47.702;9.826;2022-12-18T02:25:11;38.53;;;19.43;;
20140;SDS011;10231;47.702;9.826;2022-12-18T02:28:00;37.47;;;19.47;;
20140;SDS011;10231;47.702;9.826;2022-12-18T02:30:29;36.57;;;19.57;;
20140;SDS011;10231;47.702;9.826;2022-12-18T02:32:58;35.57;;;18.37;;
20140;SDS011;10231;47.702;9.826;2022-12-18T02:35:27;33.20;;;18.67;;
20140;SDS011;10231;47.702;9.826;2022-12-18T02:37:54;36.00;;;19.67;;
20140;SDS011;10231;47.702;9.826;2022-12-18T02:40:21;34.43;;;17.37;;
20140;SDS011;10231;47.702;9.826;2022-12-18T02:42:49;37.87;;;18.23;;
20140;SDS011;10231;47.702;9.826;2022-12-18T02:45:14;36.50;;;19.20;;
20140;SDS011;10231;47.702;9.826;2022-12-18T02:47:41;31.80;;;18.03;;
20140;SDS011;10231;47.702;9.826;2022-12-18T02:50:25;32.83;;;18.37;;
20140;SDS011;10231;47.702;9.826;2022-12-18T02:53:09;32.30;;;17.60;;
20140;SDS011;10231;47.702;9.826;2022-12-18T02:58:30;31.70;;;18.07;;
20140;SDS011;10231;47.702;9.826;2022-12-18T03:01:13;30.60;;;17.43;;
20140;SDS011;10231;47.702;9.826;2022-12-18T03:03:42;35.33;;;18.27;;
20140;SDS011;10231;47.702;9.826;2022-12-18T03:06:16;34.00;;;17.73;;
20140;SDS011;10231;47.702;9.826;2022-12-18T03:08:56;30.87;;;16.67;;
20140;SDS011;10231;47.702;9.826;2022-12-18T03:11:23;31.33;;;17.00;;
20140;SDS011;10231;47.702;9.826;2022-12-18T03:14:10;35.13;;;18.10;;
20140;SDS011;10231;47.702;9.826;2022-12-18T03:16:41;33.73;;;18.37;;
20140;SDS011;10231;47.702;9.826;2022-12-18T03:19:15;34.37;;;18.27;;
20140;SDS011;10231;47.702;9.826;2022-12-18T03:21:45;31.35;;;17.48;;
20140;SDS011;10231;47.702;9.826;2022-12-18T03:24:14;28.17;;;16.27;;
20140;SDS011;10231;47.702;9.826;2022-12-18T03:26:42;33.33;;;17.27;;
20140;SDS011;10231;47.702;9.826;2022-12-18T03:29:18;30.10;;;16.20;;
20140;SDS011;10231;47.702;9.826;2022-12-18T03:31:54;37.20;;;18.37;;
20140;SDS011;10231;47.702;9.826;2022-12-18T03:34:34;32.87;;;17.90;;
20140;SDS011;10231;47.702;9.826;2022-12-18T03:37:03;31.87;;;15.83;;
20140;SDS011;10231;47.702;9.826;2022-12-18T03:39:30;31.48;;;16.80;;
20140;SDS011;10231;47.702;9.826;2022-12-18T03:42:01;30.40;;;17.00;;
20140;SDS011;10231;47.702;9.826;2022-12-18T03:44:36;30.85;;;17.80;;
20140;SDS011;10231;47.702;9.826;2022-12-18T03:50:24;32.63;;;17.98;;
20140;SDS011;10231;47.702;9.826;2022-12-18T03:53:25;32.70;;;17.90;;
20140;SDS011;10231;47.702;9.826;2022-12-18T03:55:57;33.77;;;16.33;;
20140;SDS011;10231;47.702;9.826;2022-12-18T03:58:25;30.15;;;17.27;;
20140;SDS011;10231;47.702;9.826;2022-12-18T04:00:53;35.13;;;17.70;;
20140;SDS011;10231;47.702;9.826;2022-12-18T04:03:21;31.93;;;18.07;;
20140;SDS011;10231;47.702;9.826;2022-12-18T04:05:49;33.53;;;17.23;;
20140;SDS011;10231;47.702;9.826;2022-12-18T04:08:17;31.50;;;18.13;;
20140;SDS011;10231;47.702;9.826;2022-12-18T04:10:43;32.80;;;16.87;;
20140;SDS011;10231;47.702;9.826;2022-12-18T04:13:09;33.60;;;17.87;;
20140;SDS011;10231;47.702;9.826;2022-12-18T04:15:35;34.33;;;17.13;;
20140;SDS011;10231;47.702;9.826;2022-12-18T04:18:02;30.83;;;17.15;;
20140;SDS011;10231;47.702;9.826;2022-12-18T04:20:28;30.97;;;16.63;;
20140;SDS011;10231;47.702;9.826;2022-12-18T04:22:54;34.30;;;17.10;;
20140;SDS011;10231;47.702;9.826;2022-12-18T04:25:19;30.93;;;16.30;;
20140;SDS011;10231;47.702;9.826;2022-12-18T04:27:45;34.13;;;18.20;;
20140;SDS011;10231;47.702;9.826;2022-12-18T04:30:10;31.40;;;17.60;;
20140;SDS011;10231;47.702;9.826;2022-12-18T04:32:36;34.23;;;17.50;;
20140;SDS011;10231;47.702;9.826;2022-12-18T04:35:02;34.57;;;17.77;;
20140;SDS011;10231;47.702;9.826;2022-12-18T04:37:29;34.30;;;18.02;;
20140;SDS011;10231;47.702;9.826;2022-12-18T04:39:54;33.07;;;17.60;;
20140;SDS011;10231;47.702;9.826;2022-12-18T04:42:20;35.40;;;18.83;;
20140;SDS011;10231;47.702;9.826;2022-12-18T04:44:46;34.63;;;17.67;;
20140;SDS011;10231;47.702;9.826;2022-12-18T04:47:11;33.00;;;16.93;;
20140;SDS011;10231;47.702;9.826;2022-12-18T04:49:37;35.27;;;18.37;;
20140;SDS011;10231;47.702;9.826;2022-12-18T04:52:02;32.33;;;17.30;;
20140;SDS011;10231;47.702;9.826;2022-12-18T04:54:28;36.37;;;17.87;;
20140;SDS011;10231;47.702;9.826;2022-12-18T04:56:53;32.80;;;17.93;;
20140;SDS011;10231;47.702;9.826;2022-12-18T04:59:19;33.37;;;18.13;;
20140;SDS011;10231;47.702;9.826;2022-12-18T05:01:45;31.70;;;16.90;;
20140;SDS011;10231;47.702;9.826;2022-12-18T05:04:10;33.87;;;18.50;;
20140;SDS011;10231;47.702;9.826;2022-12-18T05:06:36;31.57;;;17.67;;
20140;SDS011;10231;47.702;9.826;2022-12-18T05:09:02;34.90;;;18.10;;
20140;SDS011;10231;47.702;9.826;2022-12-18T05:11:28;32.80;;;17.57;;
20140;SDS011;10231;47.702;9.826;2022-12-18T05:13:53;35.43;;;19.87;;
20140;SDS011;10231;47.702;9.826;2022-12-18T05:16:19;35.03;;;17.03;;
20140;SDS011;10231;47.702;9.826;2022-12-18T05:18:44;33.13;;;17.20;;
20140;SDS011;10231;47.702;9.826;2022-12-18T05:21:10;33.70;;;16.97;;
20140;SDS011;10231;47.702;9.826;2022-12-18T05:23:35;36.17;;;17.97;;
20140;SDS011;10231;47.702;9.826;2022-12-18T05:26:02;33.10;;;16.63;;
20140;SDS011;10231;47.702;9.826;2022-12-18T05:28:30;36.40;;;17.45;;
20140;SDS011;10231;47.702;9.826;2022-12-18T05:30:59;37.40;;;19.08;;
20140;SDS011;10231;47.702;9.826;2022-12-18T05:33:26;33.23;;;17.67;;
20140;SDS011;10231;47.702;9.826;2022-12-18T05:35:55;35.78;;;17.65;;
20140;SDS011;10231;47.702;9.826;2022-12-18T05:38:22;39.95;;;18.33;;
20140;SDS011;10231;47.702;9.826;2022-12-18T05:40:50;36.58;;;18.73;;
20140;SDS011;10231;47.702;9.826;2022-12-18T05:43:16;36.60;;;18.63;;
20140;SDS011;10231;47.702;9.826;2022-12-18T05:45:42;38.88;;;20.48;;
20140;SDS011;10231;47.702;9.826;2022-12-18T05:48:09;33.77;;;18.13;;
20140;SDS011;10231;47.702;9.826;2022-12-18T05:50:35;36.27;;;18.17;;
20140;SDS011;10231;47.702;9.826;2022-12-18T05:53:02;36.28;;;18.45;;
20140;SDS011;10231;47.702;9.826;2022-12-18T05:55:28;37.33;;;18.02;;
20140;SDS011;10231;47.702;9.826;2022-12-18T05:57:54;38.63;;;17.83;;
20140;SDS011;10231;47.702;9.826;2022-12-18T06:00:20;35.13;;;18.47;;
20140;SDS011;10231;47.702;9.826;2022-12-18T06:02:48;34.60;;;17.20;;
20140;SDS011;10231;47.702;9.826;2022-12-18T06:05:14;35.85;;;17.02;;
20140;SDS011;10231;47.702;9.826;2022-12-18T06:07:40;37.10;;;19.40;;
20140;SDS011;10231;47.702;9.826;2022-12-18T06:10:05;33.70;;;18.43;;
20140;SDS011;10231;47.702;9.826;2022-12-18T06:12:31;32.23;;;17.23;;
20140;SDS011;10231;47.702;9.826;2022-12-18T06:14:58;33.55;;;18.13;;
20140;SDS011;10231;47.702;9.826;2022-12-18T06:17:27;35.00;;;17.63;;
20140;SDS011;10231;47.702;9.826;2022-12-18T06:19:56;31.20;;;18.02;;
20140;SDS011;10231;47.702;9.826;2022-12-18T06:22:22;35.03;;;17.43;;
20140;SDS011;10231;47.702;9.826;2022-12-18T06:24:48;32.58;;;17.60;;
20140;SDS011;10231;47.702;9.826;2022-12-18T06:27:14;35.40;;;17.13;;
20140;SDS011;10231;47.702;9.826;2022-12-18T06:29:40;35.47;;;17.20;;
20140;SDS011;10231;47.702;9.826;2022-12-18T06:32:05;34.17;;;18.07;;
20140;SDS011;10231;47.702;9.826;2022-12-18T06:34:31;33.13;;;17.00;;
20140;SDS011;10231;47.702;9.826;2022-12-18T06:36:57;36.47;;;18.00;;
20140;SDS011;10231;47.702;9.826;2022-12-18T06:39:23;38.15;;;19.55;;
20140;SDS011;10231;47.702;9.826;2022-12-18T06:41:49;36.23;;;18.83;;
20140;SDS011;10231;47.702;9.826;2022-12-18T06:44:14;36.83;;;17.77;;
20140;SDS011;10231;47.702;9.826;2022-12-18T06:46:40;32.83;;;17.37;;
20140;SDS011;10231;47.702;9.826;2022-12-18T06:49:06;33.37;;;17.53;;
20140;SDS011;10231;47.702;9.826;2022-12-18T06:51:34;35.00;;;18.80;;
20140;SDS011;10231;47.702;9.826;2022-12-18T06:53:59;34.40;;;17.27;;
20140;SDS011;10231;47.702;9.826;2022-12-18T06:56:25;36.00;;;18.07;;
20140;SDS011;10231;47.702;9.826;2022-12-18T06:58:50;33.60;;;16.47;;
20140;SDS011;10231;47.702;9.826;2022-12-18T07:01:16;35.63;;;17.77;;
20140;SDS011;10231;47.702;9.826;2022-12-18T07:03:42;36.83;;;18.63;;
20140;SDS011;10231;47.702;9.826;2022-12-18T07:06:18;38.20;;;20.13;;
20140;SDS011;10231;47.702;9.826;2022-12-18T07:08:45;37.33;;;17.90;;
20140;SDS011;10231;47.702;9.826;2022-12-18T07:11:11;35.97;;;18.90;;
20140;SDS011;10231;47.702;9.826;2022-12-18T07:13:37;33.03;;;16.90;;
20140;SDS011;10231;47.702;9.826;2022-12-18T07:16:10;33.77;;;18.17;;
20140;SDS011;10231;47.702;9.826;2022-12-18T07:18:37;35.95;;;17.98;;
20140;SDS011;10231;47.702;9.826;2022-12-18T07:21:07;31.70;;;16.43;;
20140;SDS011;10231;47.702;9.826;2022-12-18T07:23:34;32.77;;;16.43;;
20140;SDS011;10231;47.702;9.826;2022-12-18T07:26:01;35.77;;;17.70;;
20140;SDS011;10231;47.702;9.826;2022-12-18T07:28:28;29.67;;;16.83;;
20140;SDS011;10231;47.702;9.826;2022-12-18T07:30:53;31.67;;;16.33;;
20140;SDS011;10231;47.702;9.826;2022-12-18T07:33:19;29.70;;;16.00;;
20140;SDS011;10231;47.702;9.826;2022-12-18T07:35:45;33.67;;;18.63;;
20140;SDS011;10231;47.702;9.826;2022-12-18T07:38:10;31.47;;;16.47;;
20140;SDS011;10231;47.702;9.826;2022-12-18T07:40:36;32.83;;;17.20;;
20140;SDS011;10231;47.702;9.826;2022-12-18T07:43:01;28.13;;;15.87;;
20140;SDS011;10231;47.702;9.826;2022-12-18T07:45:27;33.87;;;16.53;;
20140;SDS011;10231;47.702;9.826;2022-12-18T07:47:52;30.40;;;16.93;;
20140;SDS011;10231;47.702;9.826;2022-12-18T07:50:18;33.03;;;16.23;;
20140;SDS011;10231;47.702;9.826;2022-12-18T07:52:43;32.60;;;16.97;;
20140;SDS011;10231;47.702;9.826;2022-12-18T07:55:09;29.60;;;16.87;;
20140;SDS011;10231;47.702;9.826;2022-12-18T07:57:34;33.70;;;17.60;;
20140;SDS011;10231;47.702;9.826;2022-12-18T08:00:00;30.60;;;17.03;;
20140;SDS011;10231;47.702;9.826;2022-12-18T08:02:25;33.50;;;16.60;;
20140;SDS011;10231;47.702;9.826;2022-12-18T08:04:51;31.87;;;17.13;;
20140;SDS011;10231;47.702;9.826;2022-12-18T08:07:17;32.20;;;18.27;;
20140;SDS011;10231;47.702;9.826;2022-12-18T08:09:42;32.90;;;16.93;;
20140;SDS011;10231;47.702;9.826;2022-12-18T08:12:08;33.57;;;18.07;;
20140;SDS011;10231;47.702;9.826;2022-12-18T08:14:33;32.33;;;17.20;;
20140;SDS011;10231;47.702;9.826;2022-12-18T08:16:59;32.67;;;16.33;;
20140;SDS011;10231;47.702;9.826;2022-12-18T08:19:24;31.37;;;16.60;;
20140;SDS011;10231;47.702;9.826;2022-12-18T08:21:50;33.03;;;17.97;;
20140;SDS011;10231;47.702;9.826;2022-12-18T08:24:15;31.23;;;16.13;;
20140;SDS011;10231;47.702;9.826;2022-12-18T08:26:41;33.80;;;17.90;;
20140;SDS011;10231;47.702;9.826;2022-12-18T08:29:07;28.27;;;15.80;;
20140;SDS011;10231;47.702;9.826;2022-12-18T08:31:33;32.37;;;17.77;;
20140;SDS011;10231;47.702;9.826;2022-12-18T08:33:59;27.67;;;15.77;;
20140;SDS011;10231;47.702;9.826;2022-12-18T08:36:25;32.27;;;16.40;;
20140;SDS011;10231;47.702;9.826;2022-12-18T08:38:51;36.03;;;16.80;;
20140;SDS011;10231;47.702;9.826;2022-12-18T08:41:17;33.50;;;15.87;;
20140;SDS011;10231;47.702;9.826;2022-12-18T08:43:43;34.53;;;17.60;;
20140;SDS011;10231;47.702;9.826;2022-12-18T08:46:30;36.58;;;17.05;;
20140;SDS011;10231;47.702;9.826;2022-12-18T08:49:01;35.33;;;17.20;;
20140;SDS011;10231;47.702;9.826;2022-12-18T08:51:27;38.77;;;17.87;;
20140;SDS011;10231;47.702;9.826;2022-12-18T08:53:52;36.10;;;18.43;;
20140;SDS011;10231;47.702;9.826;2022-12-18T08:56:18;41.50;;;17.73;;
20140;SDS011;10231;47.702;9.826;2022-12-18T08:58:44;38.97;;;18.47;;
20140;SDS011;10231;47.702;9.826;2022-12-18T09:01:11;44.10;;;23.10;;
20140;SDS011;10231;47.702;9.826;2022-12-18T09:03:38;37.13;;;17.57;;
20140;SDS011;10231;47.702;9.826;2022-12-18T09:06:04;34.43;;;18.70;;
20140;SDS011;10231;47.702;9.826;2022-12-18T09:08:30;37.03;;;18.23;;
20140;SDS011;10231;47.702;9.826;2022-12-18T09:10:55;33.57;;;16.90;;
20140;SDS011;10231;47.702;9.826;2022-12-18T09:13:21;35.57;;;16.47;;
20140;SDS011;10231;47.702;9.826;2022-12-18T09:15:49;38.83;;;18.27;;
20140;SDS011;10231;47.702;9.826;2022-12-18T09:18:19;36.17;;;17.20;;
20140;SDS011;10231;47.702;9.826;2022-12-18T09:20:46;33.00;;;17.23;;
20140;SDS011;10231;47.702;9.826;2022-12-18T09:23:12;37.53;;;17.17;;
20140;SDS011;10231;47.702;9.826;2022-12-18T09:25:38;33.83;;;16.63;;
20140;SDS011;10231;47.702;9.826;2022-12-18T09:30:30;36.83;;;17.07;;
20140;SDS011;10231;47.702;9.826;2022-12-18T09:32:58;36.20;;;16.73;;
20140;SDS011;10231;47.702;9.826;2022-12-18T09:35:24;37.80;;;16.47;;
20140;SDS011;10231;47.702;9.826;2022-12-18T09:37:49;34.17;;;16.67;;
20140;SDS011;10231;47.702;9.826;2022-12-18T09:40:16;34.37;;;16.60;;
20140;SDS011;10231;47.702;9.826;2022-12-18T09:42:54;35.17;;;16.07;;
20140;SDS011;10231;47.702;9.826;2022-12-18T09:45:27;34.77;;;16.40;;
20140;SDS011;10231;47.702;9.826;2022-12-18T09:48:00;35.00;;;16.40;;
20140;SDS011;10231;47.702;9.826;2022-12-18T09:50:32;35.83;;;16.60;;
20140;SDS011;10231;47.702;9.826;2022-12-18T09:53:02;36.17;;;17.57;;
20140;SDS011;10231;47.702;9.826;2022-12-18T09:55:36;32.70;;;15.47;;
20140;SDS011;10231;47.702;9.826;2022-12-18T10:00:57;34.40;;;15.70;;
20140;SDS011;10231;47.702;9.826;2022-12-18T10:03:23;32.83;;;15.90;;
20140;SDS011;10231;47.702;9.826;2022-12-18T10:06:06;35.43;;;16.30;;
20140;SDS011;10231;47.702;9.826;2022-12-18T10:14:08;35.00;;;17.00;;
20140;SDS011;10231;47.702;9.826;2022-12-18T10:19:13;35.20;;;16.10;;
20140;SDS011;10231;47.702;9.826;2022-12-18T10:21:53;33.70;;;15.20;;
20140;SDS011;10231;47.702;9.826;2022-12-18T10:27:09;35.50;;;16.63;;
20140;SDS011;10231;47.702;9.826;2022-12-18T10:29:36;35.40;;;17.30;;
20140;SDS011;10231;47.702;9.826;2022-12-18T10:32:02;35.90;;;16.80;;
20140;SDS011;10231;47.702;9.826;2022-12-18T10:34:28;34.37;;;16.53;;
20140;SDS011;10231;47.702;9.826;2022-12-18T10:36:53;32.60;;;14.97;;
20140;SDS011;10231;47.702;9.826;2022-12-18T10:41:48;31.03;;;15.23;;
20140;SDS011;10231;47.702;9.826;2022-12-18T10:47:06;38.43;;;15.83;;
20140;SDS011;10231;47.702;9.826;2022-12-18T10:49:32;34.57;;;15.23;;
20140;SDS011;10231;47.702;9.826;2022-12-18T10:52:07;34.73;;;15.87;;
20140;SDS011;10231;47.702;9.826;2022-12-18T10:54:45;35.77;;;14.87;;
20140;SDS011;10231;47.702;9.826;2022-12-18T10:59:52;33.73;;;16.13;;
20140;SDS011;10231;47.702;9.826;2022-12-18T11:02:35;38.07;;;17.30;;
20140;SDS011;10231;47.702;9.826;2022-12-18T11:05:02;34.50;;;17.03;;
20140;SDS011;10231;47.702;9.826;2022-12-18T11:07:48;33.47;;;17.47;;
20140;SDS011;10231;47.702;9.826;2022-12-18T11:10:18;34.30;;;15.47;;
20140;SDS011;10231;47.702;9.826;2022-12-18T11:12:46;34.00;;;16.17;;
20140;SDS011;10231;47.702;9.826;2022-12-18T11:15:28;33.97;;;16.77;;
20140;SDS011;10231;47.702;9.826;2022-12-18T11:17:55;37.47;;;16.40;;
20140;SDS011;10231;47.702;9.826;2022-12-18T11:20:31;34.10;;;16.13;;
20140;SDS011;10231;47.702;9.826;2022-12-18T11:23:00;33.53;;;16.30;;
20140;SDS011;10231;47.702;9.826;2022-12-18T11:25:28;36.33;;;17.83;;
20140;SDS011;10231;47.702;9.826;2022-12-18T11:27:55;34.17;;;15.57;;
20140;SDS011;10231;47.702;9.826;2022-12-18T11:30:27;34.20;;;15.43;;
20140;SDS011;10231;47.702;9.826;2022-12-18T11:32:59;35.47;;;16.67;;
20140;SDS011;10231;47.702;9.826;2022-12-18T11:35:35;36.33;;;16.07;;
20140;SDS011;10231;47.702;9.826;2022-12-18T11:38:16;36.43;;;18.33;;
20140;SDS011;10231;47.702;9.826;2022-12-18T11:40:58;31.37;;;16.50;;
20140;SDS011;10231;47.702;9.826;2022-12-18T11:43:50;32.10;;;16.07;;
20140;SDS011;10231;47.702;9.826;2022-12-18T11:46:33;38.93;;;17.27;;
20140;SDS011;10231;47.702;9.826;2022-12-18T11:51:52;40.17;;;17.80;;
20140;SDS011;10231;47.702;9.826;2022-12-18T11:54:34;38.20;;;17.07;;
20140;SDS011;10231;47.702;9.826;2022-12-18T11:59:54;39.27;;;18.83;;
20140;SDS011;10231;47.702;9.826;2022-12-18T12:05:03;34.97;;;17.93;;
20140;SDS011;10231;47.702;9.826;2022-12-18T12:07:46;40.30;;;17.27;;
20140;SDS011;10231;47.702;9.826;2022-12-18T12:23:39;38.23;;;17.57;;
20140;SDS011;10231;47.702;9.826;2022-12-18T12:31:52;28.97;;;15.70;;
20140;SDS011;10231;47.702;9.826;2022-12-18T12:39:40;33.27;;;15.93;;
20140;SDS011;10231;47.702;9.826;2022-12-18T12:42:23;29.60;;;15.57;;
20140;SDS011;10231;47.702;9.826;2022-12-18T12:45:36;31.40;;;16.63;;
20140;SDS011;10231;47.702;9.826;2022-12-18T12:48:05;33.97;;;16.47;;
20140;SDS011;10231;47.702;9.826;2022-12-18T12:50:36;29.23;;;15.63;;
20140;SDS011;10231;47.702;9.826;2022-12-18T12:53:05;31.30;;;15.13;;
20140;SDS011;10231;47.702;9.826;2022-12-18T12:55:34;26.90;;;14.90;;
20140;SDS011;10231;47.702;9.826;2022-12-18T13:00:55;26.83;;;14.43;;
20140;SDS011;10231;47.702;9.826;2022-12-18T13:04:15;31.63;;;15.47;;
20140;SDS011;10231;47.702;9.826;2022-12-18T13:06:33;28.70;;;14.47;;
20140;SDS011;10231;47.702;9.826;2022-12-18T13:09:07;27.67;;;14.13;;
20140;SDS011;10231;47.702;9.826;2022-12-18T13:11:39;26.90;;;14.47;;
20140;SDS011;10231;47.702;9.826;2022-12-18T13:14:32;29.73;;;14.47;;
20140;SDS011;10231;47.702;9.826;2022-12-18T13:19:49;26.33;;;14.37;;
20140;SDS011;10231;47.702;9.826;2022-12-18T13:22:23;30.10;;;14.40;;
20140;SDS011;10231;47.702;9.826;2022-12-18T13:24:59;28.33;;;14.77;;
20140;SDS011;10231;47.702;9.826;2022-12-18T13:30:55;32.13;;;16.57;;
20140;SDS011;10231;47.702;9.826;2022-12-18T13:35:40;31.37;;;15.23;;
20140;SDS011;10231;47.702;9.826;2022-12-18T13:38:22;29.57;;;14.83;;
20140;SDS011;10231;47.702;9.826;2022-12-18T13:40:57;30.53;;;14.73;;
20140;SDS011;10231;47.702;9.826;2022-12-18T13:43:28;34.40;;;16.03;;
20140;SDS011;10231;47.702;9.826;2022-12-18T13:48:33;32.47;;;15.90;;
20140;SDS011;10231;47.702;9.826;2022-12-18T13:51:04;30.90;;;15.10;;
20140;SDS011;10231;47.702;9.826;2022-12-18T13:53:39;35.90;;;15.80;;
20140;SDS011;10231;47.702;9.826;2022-12-18T13:56:09;34.47;;;16.67;;
20140;SDS011;10231;47.702;9.826;2022-12-18T13:58:41;33.23;;;15.97;;
20140;SDS011;10231;47.702;9.826;2022-12-18T14:01:15;33.93;;;16.53;;
20140;SDS011;10231;47.702;9.826;2022-12-18T14:03:47;34.23;;;16.23;;
20140;SDS011;10231;47.702;9.826;2022-12-18T14:06:13;37.50;;;16.67;;
20140;SDS011;10231;47.702;9.826;2022-12-18T14:08:40;32.67;;;16.37;;
20140;SDS011;10231;47.702;9.826;2022-12-18T14:11:11;32.33;;;15.47;;
20140;SDS011;10231;47.702;9.826;2022-12-18T14:13:47;34.20;;;16.30;;
20140;SDS011;10231;47.702;9.826;2022-12-18T14:16:13;37.07;;;17.87;;
20140;SDS011;10231;47.702;9.826;2022-12-18T14:21:15;31.03;;;15.83;;
20140;SDS011;10231;47.702;9.826;2022-12-18T14:24:14;34.87;;;16.90;;
20140;SDS011;10231;47.702;9.826;2022-12-18T14:26:45;36.73;;;17.20;;
20140;SDS011;10231;47.702;9.826;2022-12-18T14:29:19;35.63;;;16.43;;
20140;SDS011;10231;47.702;9.826;2022-12-18T14:34:36;31.67;;;15.83;;
20140;SDS011;10231;47.702;9.826;2022-12-18T14:37:01;32.57;;;16.40;;
20140;SDS011;10231;47.702;9.826;2022-12-18T14:39:27;30.20;;;14.90;;
20140;SDS011;10231;47.702;9.826;2022-12-18T14:41:53;31.10;;;15.63;;
20140;SDS011;10231;47.702;9.826;2022-12-18T14:44:19;31.80;;;15.80;;
20140;SDS011;10231;47.702;9.826;2022-12-18T14:46:46;31.37;;;15.77;;
20140;SDS011;10231;47.702;9.826;2022-12-18T14:49:22;34.97;;;15.97;;
20140;SDS011;10231;47.702;9.826;2022-12-18T14:52:04;31.73;;;15.73;;
20140;SDS011;10231;47.702;9.826;2022-12-18T14:54:31;32.63;;;15.63;;
20140;SDS011;10231;47.702;9.826;2022-12-18T14:59:26;33.07;;;15.83;;
20140;SDS011;10231;47.702;9.826;2022-12-18T15:02:34;29.77;;;15.60;;
20140;SDS011;10231;47.702;9.826;2022-12-18T15:04:44;32.67;;;17.13;;
20140;SDS011;10231;47.702;9.826;2022-12-18T15:09:36;34.80;;;17.27;;
20140;SDS011;10231;47.702;9.826;2022-12-18T15:12:03;33.07;;;16.70;;
20140;SDS011;10231;47.702;9.826;2022-12-18T15:16:55;32.30;;;16.93;;
20140;SDS011;10231;47.702;9.826;2022-12-18T15:19:22;34.03;;;16.87;;
20140;SDS011;10231;47.702;9.826;2022-12-18T15:21:57;32.73;;;16.10;;
20140;SDS011;10231;47.702;9.826;2022-12-18T15:24:24;33.43;;;16.07;;
20140;SDS011;10231;47.702;9.826;2022-12-18T15:26:54;35.40;;;17.10;;
20140;SDS011;10231;47.702;9.826;2022-12-18T15:29:20;31.63;;;14.43;;
20140;SDS011;10231;47.702;9.826;2022-12-18T15:32:01;31.07;;;14.90;;
20140;SDS011;10231;47.702;9.826;2022-12-18T15:34:28;30.80;;;15.30;;
20140;SDS011;10231;47.702;9.826;2022-12-18T15:36:54;29.50;;;16.03;;
20140;SDS011;10231;47.702;9.826;2022-12-18T15:39:20;33.63;;;17.27;;
20140;SDS011;10231;47.702;9.826;2022-12-18T15:41:45;35.27;;;16.90;;
20140;SDS011;10231;47.702;9.826;2022-12-18T15:44:30;29.67;;;15.97;;
20140;SDS011;10231;47.702;9.826;2022-12-18T15:46:56;31.20;;;16.47;;
20140;SDS011;10231;47.702;9.826;2022-12-18T15:49:22;35.30;;;15.80;;
20140;SDS011;10231;47.702;9.826;2022-12-18T15:51:49;28.70;;;15.07;;
20140;SDS011;10231;47.702;9.826;2022-12-18T15:54:21;28.57;;;14.57;;
20140;SDS011;10231;47.702;9.826;2022-12-18T15:57:10;28.67;;;14.47;;
20140;SDS011;10231;47.702;9.826;2022-12-18T15:59:49;28.87;;;14.50;;
20140;SDS011;10231;47.702;9.826;2022-12-18T16:02:24;34.50;;;15.27;;
20140;SDS011;10231;47.702;9.826;2022-12-18T16:04:50;34.27;;;15.40;;
20140;SDS011;10231;47.702;9.826;2022-12-18T16:07:17;34.20;;;16.27;;
20140;SDS011;10231;47.702;9.826;2022-12-18T16:09:42;34.73;;;15.47;;
20140;SDS011;10231;47.702;9.826;2022-12-18T16:12:14;30.67;;;14.93;;
20140;SDS011;10231;47.702;9.826;2022-12-18T16:14:42;30.03;;;14.43;;